sensor_id;sensor_type;location;lat;lon;timestamp;temperature;humidity
39779;DHT22;25454;49.878;8.618;2023-04-02T00:00:17;10.20;99.90
39779;DHT22;25454;49.878;8.618;2023-04-02T00:10:50;10.10;99.90
39779;DHT22;25454;49.878;8.618;2023-04-02T00:15:55;10.00;99.90
39779;DHT22;25454;49.878;8.618;2023-04-02T00:26:30;9.90;99.90
39779;DHT22;25454;49.878;8.618;2023-04-02T00:31:36;9.80;99.90
39779;DHT22;25454;49.878;8.618;2023-04-02T00:36:37;9.90;99.90
39779;DHT22;25454;49.878;8.618;2023-04-02T00:41:38;9.90;99.90
39779;DHT22;25454;49.878;8.618;2023-04-02T00:46:41;9.80;99.90
39779;DHT22;25454;49.878;8.618;2023-04-02T00:51:53;9.90;99.90
39779;DHT22;25454;49.878;8.618;2023-04-02T00:56:56;9.90;99.90
39779;DHT22;25454;49.878;8.618;2023-04-02T01:07:25;9.80;99.90
39779;DHT22;25454;49.878;8.618;2023-04-02T01:12:48;9.80;99.90
39779;DHT22;25454;49.878;8.618;2023-04-02T01:18:34;9.80;99.90
39779;DHT22;25454;49.878;8.618;2023-04-02T01:28:43;9.90;99.90
39779;DHT22;25454;49.878;8.618;2023-04-02T01:33:46;9.90;99.90
39779;DHT22;25454;49.878;8.618;2023-04-02T01:44:45;10.00;99.90
39779;DHT22;25454;49.878;8.618;2023-04-02T01:49:47;10.00;99.90
39779;DHT22;25454;49.878;8.618;2023-04-02T01:54:47;10.00;99.90
39779;DHT22;25454;49.878;8.618;2023-04-02T01:59:48;10.00;99.90
39779;DHT22;25454;49.878;8.618;2023-04-02T02:04:49;10.00;99.90
39779;DHT22;25454;49.878;8.618;2023-04-02T02:09:50;10.00;99.90
39779;DHT22;25454;49.878;8.618;2023-04-02T02:14:50;10.00;99.90
39779;DHT22;25454;49.878;8.618;2023-04-02T02:19:55;10.00;99.90
39779;DHT22;25454;49.878;8.618;2023-04-02T02:24:58;10.00;99.90
39779;DHT22;25454;49.878;8.618;2023-04-02T02:30:46;10.00;99.90
39779;DHT22;25454;49.878;8.618;2023-04-02T02:35:53;10.00;99.90
39779;DHT22;25454;49.878;8.618;2023-04-02T02:40:58;10.00;99.90
39779;DHT22;25454;49.878;8.618;2023-04-02T02:46:01;9.90;99.90
39779;DHT22;25454;49.878;8.618;2023-04-02T02:51:08;9.90;99.90
39779;DHT22;25454;49.878;8.618;2023-04-02T02:56:11;9.90;99.90
39779;DHT22;25454;49.878;8.618;2023-04-02T03:01:12;9.90;99.90
39779;DHT22;25454;49.878;8.618;2023-04-02T03:06:16;9.90;99.90
39779;DHT22;25454;49.878;8.618;2023-04-02T03:11:32;9.90;99.90
39779;DHT22;25454;49.878;8.618;2023-04-02T03:16:39;9.90;99.90
39779;DHT22;25454;49.878;8.618;2023-04-02T03:21:56;9.80;99.90
39779;DHT22;25454;49.878;8.618;2023-04-02T03:32:22;9.80;99.90
39779;DHT22;25454;49.878;8.618;2023-04-02T03:37:50;9.90;99.90
39779;DHT22;25454;49.878;8.618;2023-04-02T03:42:59;9.80;99.90
39779;DHT22;25454;49.878;8.618;2023-04-02T03:48:32;9.90;99.90
39779;DHT22;25454;49.878;8.618;2023-04-02T03:53:33;9.80;99.90
39779;DHT22;25454;49.878;8.618;2023-04-02T03:58:40;9.80;99.90
39779;DHT22;25454;49.878;8.618;2023-04-02T04:03:48;9.80;99.90
39779;DHT22;25454;49.878;8.618;2023-04-02T04:08:53;9.80;99.90
39779;DHT22;25454;49.878;8.618;2023-04-02T04:14:17;9.80;99.90
39779;DHT22;25454;49.878;8.618;2023-04-02T04:19:32;9.80;99.90
39779;DHT22;25454;49.878;8.618;2023-04-02T04:24:37;9.80;99.90
39779;DHT22;25454;49.878;8.618;2023-04-02T04:29:55;9.80;99.90
39779;DHT22;25454;49.878;8.618;2023-04-02T04:40:43;9.70;99.90
39779;DHT22;25454;49.878;8.618;2023-04-02T04:45:50;9.70;99.90
39779;DHT22;25454;49.878;8.618;2023-04-02T04:51:02;9.70;99.90
39779;DHT22;25454;49.878;8.618;2023-04-02T04:56:03;9.70;99.90
39779;DHT22;25454;49.878;8.618;2023-04-02T05:01:19;9.70;99.90
39779;DHT22;25454;49.878;8.618;2023-04-02T05:12:20;9.80;99.90
39779;DHT22;25454;49.878;8.618;2023-04-02T05:17:32;9.70;99.90
39779;DHT22;25454;49.878;8.618;2023-04-02T05:22:43;9.70;99.90
39779;DHT22;25454;49.878;8.618;2023-04-02T05:27:55;9.80;99.90
39779;DHT22;25454;49.878;8.618;2023-04-02T05:33:29;9.80;99.90
39779;DHT22;25454;49.878;8.618;2023-04-02T05:38:33;9.80;99.90
39779;DHT22;25454;49.878;8.618;2023-04-02T05:43:36;9.90;99.90
39779;DHT22;25454;49.878;8.618;2023-04-02T05:48:39;10.00;99.90
39779;DHT22;25454;49.878;8.618;2023-04-02T05:53:51;10.00;99.90
39779;DHT22;25454;49.878;8.618;2023-04-02T05:58:56;10.10;99.90
39779;DHT22;25454;49.878;8.618;2023-04-02T06:04:06;10.20;99.90
39779;DHT22;25454;49.878;8.618;2023-04-02T06:09:16;10.40;99.90
39779;DHT22;25454;49.878;8.618;2023-04-02T06:14:18;10.50;99.90
39779;DHT22;25454;49.878;8.618;2023-04-02T06:19:26;10.70;99.90
39779;DHT22;25454;49.878;8.618;2023-04-02T06:24:29;10.80;99.90
39779;DHT22;25454;49.878;8.618;2023-04-02T06:29:32;10.90;99.90
39779;DHT22;25454;49.878;8.618;2023-04-02T06:34:39;11.00;99.90
39779;DHT22;25454;49.878;8.618;2023-04-02T06:39:40;11.10;99.90
39779;DHT22;25454;49.878;8.618;2023-04-02T06:44:41;11.30;99.90
39779;DHT22;25454;49.878;8.618;2023-04-02T06:49:46;11.40;99.90
39779;DHT22;25454;49.878;8.618;2023-04-02T06:54:47;11.50;99.90
39779;DHT22;25454;49.878;8.618;2023-04-02T06:59:48;11.70;99.90
39779;DHT22;25454;49.878;8.618;2023-04-02T07:04:49;11.80;99.90
39779;DHT22;25454;49.878;8.618;2023-04-02T07:09:49;11.90;99.90
39779;DHT22;25454;49.878;8.618;2023-04-02T07:14:53;12.20;99.90
39779;DHT22;25454;49.878;8.618;2023-04-02T07:19:53;12.30;99.90
39779;DHT22;25454;49.878;8.618;2023-04-02T07:24:54;12.40;99.90
39779;DHT22;25454;49.878;8.618;2023-04-02T07:29:55;12.50;99.90
39779;DHT22;25454;49.878;8.618;2023-04-02T07:34:56;12.60;99.90
39779;DHT22;25454;49.878;8.618;2023-04-02T07:39:56;12.70;99.90
39779;DHT22;25454;49.878;8.618;2023-04-02T07:44:57;12.70;99.90
39779;DHT22;25454;49.878;8.618;2023-04-02T07:49:58;12.50;99.90
39779;DHT22;25454;49.878;8.618;2023-04-02T07:54:58;12.50;99.90
39779;DHT22;25454;49.878;8.618;2023-04-02T07:59:59;12.30;99.90
39779;DHT22;25454;49.878;8.618;2023-04-02T08:04:59;11.90;99.90
39779;DHT22;25454;49.878;8.618;2023-04-02T08:10:01;11.00;99.90
39779;DHT22;25454;49.878;8.618;2023-04-02T08:15:03;10.50;99.90
39779;DHT22;25454;49.878;8.618;2023-04-02T08:20:06;9.90;99.90
39779;DHT22;25454;49.878;8.618;2023-04-02T08:25:10;9.50;99.90
39779;DHT22;25454;49.878;8.618;2023-04-02T08:30:12;9.40;99.90
39779;DHT22;25454;49.878;8.618;2023-04-02T08:35:14;9.30;99.90
39779;DHT22;25454;49.878;8.618;2023-04-02T08:40:26;9.30;99.90
39779;DHT22;25454;49.878;8.618;2023-04-02T08:45:55;9.20;99.90
39779;DHT22;25454;49.878;8.618;2023-04-02T08:51:01;9.10;99.90
39779;DHT22;25454;49.878;8.618;2023-04-02T09:01:39;9.10;99.90
39779;DHT22;25454;49.878;8.618;2023-04-02T09:06:42;9.20;99.90
39779;DHT22;25454;49.878;8.618;2023-04-02T09:11:55;9.20;99.90
39779;DHT22;25454;49.878;8.618;2023-04-02T09:17:01;9.20;99.90
39779;DHT22;25454;49.878;8.618;2023-04-02T09:22:10;9.20;99.90
39779;DHT22;25454;49.878;8.618;2023-04-02T09:27:19;9.20;99.90
39779;DHT22;25454;49.878;8.618;2023-04-02T09:32:51;9.10;99.90
39779;DHT22;25454;49.878;8.618;2023-04-02T09:38:21;9.00;99.90
39779;DHT22;25454;49.878;8.618;2023-04-02T09:48:39;9.10;99.90
39779;DHT22;25454;49.878;8.618;2023-04-02T09:53:43;9.30;99.90
39779;DHT22;25454;49.878;8.618;2023-04-02T09:59:13;9.30;99.90
39779;DHT22;25454;49.878;8.618;2023-04-02T10:04:43;9.50;99.90
39779;DHT22;25454;49.878;8.618;2023-04-02T10:10:00;9.50;99.90
39779;DHT22;25454;49.878;8.618;2023-04-02T10:15:02;9.60;99.90
39779;DHT22;25454;49.878;8.618;2023-04-02T10:20:19;9.30;99.90
39779;DHT22;25454;49.878;8.618;2023-04-02T10:25:24;9.20;99.90
39779;DHT22;25454;49.878;8.618;2023-04-02T10:30:49;9.20;99.90
39779;DHT22;25454;49.878;8.618;2023-04-02T10:36:08;9.10;99.90
39779;DHT22;25454;49.878;8.618;2023-04-02T10:41:32;9.10;99.90
39779;DHT22;25454;49.878;8.618;2023-04-02T10:46:43;9.30;99.90
39779;DHT22;25454;49.878;8.618;2023-04-02T10:56:55;9.60;99.90
39779;DHT22;25454;49.878;8.618;2023-04-02T11:02:00;9.60;99.90
39779;DHT22;25454;49.878;8.618;2023-04-02T11:07:06;9.90;99.90
39779;DHT22;25454;49.878;8.618;2023-04-02T11:12:28;9.70;99.90
39779;DHT22;25454;49.878;8.618;2023-04-02T11:17:31;9.50;99.90
39779;DHT22;25454;49.878;8.618;2023-04-02T11:22:31;9.60;99.90
39779;DHT22;25454;49.878;8.618;2023-04-02T11:27:32;9.70;99.90
39779;DHT22;25454;49.878;8.618;2023-04-02T11:32:39;9.70;99.90
39779;DHT22;25454;49.878;8.618;2023-04-02T11:37:43;9.60;99.90
39779;DHT22;25454;49.878;8.618;2023-04-02T12:14:32;9.40;99.90
39779;DHT22;25454;49.878;8.618;2023-04-02T12:19:46;9.30;99.90
39779;DHT22;25454;49.878;8.618;2023-04-02T12:24:47;9.20;99.90
39779;DHT22;25454;49.878;8.618;2023-04-02T12:29:52;9.20;99.90
39779;DHT22;25454;49.878;8.618;2023-04-02T12:34:54;9.10;99.90
39779;DHT22;25454;49.878;8.618;2023-04-02T12:40:12;9.10;99.90
39779;DHT22;25454;49.878;8.618;2023-04-02T12:45:26;9.00;99.90
39779;DHT22;25454;49.878;8.618;2023-04-02T12:50:28;9.00;99.90
39779;DHT22;25454;49.878;8.618;2023-04-02T12:55:28;8.90;99.90
39779;DHT22;25454;49.878;8.618;2023-04-02T13:00:31;8.90;99.90
39779;DHT22;25454;49.878;8.618;2023-04-02T13:05:44;8.80;99.90
39779;DHT22;25454;49.878;8.618;2023-04-02T13:10:51;8.90;99.90
39779;DHT22;25454;49.878;8.618;2023-04-02T13:16:05;8.90;99.90
39779;DHT22;25454;49.878;8.618;2023-04-02T13:21:22;9.00;99.90
39779;DHT22;25454;49.878;8.618;2023-04-02T13:26:26;8.90;99.90
39779;DHT22;25454;49.878;8.618;2023-04-02T13:31:28;8.90;99.90
39779;DHT22;25454;49.878;8.618;2023-04-02T13:36:29;9.00;99.90
39779;DHT22;25454;49.878;8.618;2023-04-02T13:41:32;8.80;99.90
39779;DHT22;25454;49.878;8.618;2023-04-02T13:46:36;8.80;99.90
39779;DHT22;25454;49.878;8.618;2023-04-02T13:51:51;8.80;99.90
39779;DHT22;25454;49.878;8.618;2023-04-02T13:56:54;8.90;99.90
39779;DHT22;25454;49.878;8.618;2023-04-02T14:02:01;8.60;99.90
39779;DHT22;25454;49.878;8.618;2023-04-02T14:28:47;8.30;99.90
39779;DHT22;25454;49.878;8.618;2023-04-02T14:34:31;8.10;99.90
39779;DHT22;25454;49.878;8.618;2023-04-02T14:45:01;8.10;99.90
39779;DHT22;25454;49.878;8.618;2023-04-02T14:50:31;8.00;99.90
39779;DHT22;25454;49.878;8.618;2023-04-02T14:55:34;7.90;99.90
39779;DHT22;25454;49.878;8.618;2023-04-02T15:00:42;8.00;99.90
39779;DHT22;25454;49.878;8.618;2023-04-02T15:05:59;8.10;99.90
39779;DHT22;25454;49.878;8.618;2023-04-02T15:11:09;8.00;99.90
39779;DHT22;25454;49.878;8.618;2023-04-02T15:16:19;8.00;99.90
39779;DHT22;25454;49.878;8.618;2023-04-02T15:26:39;7.90;99.90
39779;DHT22;25454;49.878;8.618;2023-04-02T15:31:44;7.90;99.90
39779;DHT22;25454;49.878;8.618;2023-04-02T15:37:10;7.80;99.90
39779;DHT22;25454;49.878;8.618;2023-04-02T15:42:36;7.70;99.90
39779;DHT22;25454;49.878;8.618;2023-04-02T15:47:51;7.50;99.90
39779;DHT22;25454;49.878;8.618;2023-04-02T16:09:30;7.40;99.90
39779;DHT22;25454;49.878;8.618;2023-04-02T16:14:38;7.40;99.90
39779;DHT22;25454;49.878;8.618;2023-04-02T16:25:19;7.40;99.90
39779;DHT22;25454;49.878;8.618;2023-04-02T16:30:41;7.40;99.90
39779;DHT22;25454;49.878;8.618;2023-04-02T17:09:06;6.90;99.90
39779;DHT22;25454;49.878;8.618;2023-04-02T17:19:17;6.90;99.90
39779;DHT22;25454;49.878;8.618;2023-04-02T17:29:36;6.90;99.90
39779;DHT22;25454;49.878;8.618;2023-04-02T17:34:37;6.90;99.90
39779;DHT22;25454;49.878;8.618;2023-04-02T17:45:40;6.80;99.90
39779;DHT22;25454;49.878;8.618;2023-04-02T17:50:48;6.70;99.90
39779;DHT22;25454;49.878;8.618;2023-04-02T17:56:19;6.80;99.90
39779;DHT22;25454;49.878;8.618;2023-04-02T18:12:31;6.70;99.90
39779;DHT22;25454;49.878;8.618;2023-04-02T18:27:49;6.60;99.90
39779;DHT22;25454;49.878;8.618;2023-04-02T18:43:50;6.50;99.90
39779;DHT22;25454;49.878;8.618;2023-04-02T18:49:31;6.40;99.90
39779;DHT22;25454;49.878;8.618;2023-04-02T18:54:38;6.40;99.90
39779;DHT22;25454;49.878;8.618;2023-04-02T18:59:48;6.40;99.90
39779;DHT22;25454;49.878;8.618;2023-04-02T19:05:11;6.40;99.90
39779;DHT22;25454;49.878;8.618;2023-04-02T19:10:30;6.40;99.90
39779;DHT22;25454;49.878;8.618;2023-04-02T19:26:01;6.40;99.90
39779;DHT22;25454;49.878;8.618;2023-04-02T19:31:52;6.40;99.90
39779;DHT22;25454;49.878;8.618;2023-04-02T19:36:46;6.40;99.90
39779;DHT22;25454;49.878;8.618;2023-04-02T19:41:53;6.40;99.90
39779;DHT22;25454;49.878;8.618;2023-04-02T19:46:56;6.40;99.90
39779;DHT22;25454;49.878;8.618;2023-04-02T19:51:56;6.40;99.90
39779;DHT22;25454;49.878;8.618;2023-04-02T19:56:57;6.40;99.90
39779;DHT22;25454;49.878;8.618;2023-04-02T20:01:59;6.60;99.90
39779;DHT22;25454;49.878;8.618;2023-04-02T20:07:03;6.70;99.90
39779;DHT22;25454;49.878;8.618;2023-04-02T20:12:04;6.70;99.90
39779;DHT22;25454;49.878;8.618;2023-04-02T20:17:04;6.60;99.90
39779;DHT22;25454;49.878;8.618;2023-04-02T20:22:05;6.50;99.90
39779;DHT22;25454;49.878;8.618;2023-04-02T20:27:06;6.30;99.90
39779;DHT22;25454;49.878;8.618;2023-04-02T20:32:08;6.20;99.90
39779;DHT22;25454;49.878;8.618;2023-04-02T20:37:09;6.20;99.90
39779;DHT22;25454;49.878;8.618;2023-04-02T20:42:09;6.20;99.90
39779;DHT22;25454;49.878;8.618;2023-04-02T20:47:10;6.20;99.90
39779;DHT22;25454;49.878;8.618;2023-04-02T20:52:11;6.30;99.90
39779;DHT22;25454;49.878;8.618;2023-04-02T20:57:12;6.30;99.90
39779;DHT22;25454;49.878;8.618;2023-04-02T21:02:13;6.30;99.90
39779;DHT22;25454;49.878;8.618;2023-04-02T21:07:13;6.30;99.90
39779;DHT22;25454;49.878;8.618;2023-04-02T21:12:14;6.20;99.90
39779;DHT22;25454;49.878;8.618;2023-04-02T21:17:15;6.30;99.90
39779;DHT22;25454;49.878;8.618;2023-04-02T21:22:15;6.40;99.90
39779;DHT22;25454;49.878;8.618;2023-04-02T21:27:16;6.40;99.90
39779;DHT22;25454;49.878;8.618;2023-04-02T21:32:17;6.30;99.90
39779;DHT22;25454;49.878;8.618;2023-04-02T21:37:17;6.20;99.90
39779;DHT22;25454;49.878;8.618;2023-04-02T21:42:18;6.10;99.90
39779;DHT22;25454;49.878;8.618;2023-04-02T21:47:18;6.00;99.90
39779;DHT22;25454;49.878;8.618;2023-04-02T21:52:22;6.00;99.90
39779;DHT22;25454;49.878;8.618;2023-04-02T21:57:25;6.00;99.90
39779;DHT22;25454;49.878;8.618;2023-04-02T22:02:29;6.10;99.90
39779;DHT22;25454;49.878;8.618;2023-04-02T22:07:29;6.10;99.90
39779;DHT22;25454;49.878;8.618;2023-04-02T22:12:30;6.10;99.90
39779;DHT22;25454;49.878;8.618;2023-04-02T22:17:31;6.10;99.90
39779;DHT22;25454;49.878;8.618;2023-04-02T22:22:31;6.10;99.90
39779;DHT22;25454;49.878;8.618;2023-04-02T22:27:32;6.10;99.90
39779;DHT22;25454;49.878;8.618;2023-04-02T22:32:32;6.10;99.90
39779;DHT22;25454;49.878;8.618;2023-04-02T22:37:34;6.00;99.90
39779;DHT22;25454;49.878;8.618;2023-04-02T22:42:35;5.90;99.90
39779;DHT22;25454;49.878;8.618;2023-04-02T22:47:37;5.90;99.90
39779;DHT22;25454;49.878;8.618;2023-04-02T22:52:44;5.90;99.90
39779;DHT22;25454;49.878;8.618;2023-04-02T22:57:45;5.90;99.90
39779;DHT22;25454;49.878;8.618;2023-04-02T23:02:45;5.90;99.90
39779;DHT22;25454;49.878;8.618;2023-04-02T23:07:46;5.80;99.90
39779;DHT22;25454;49.878;8.618;2023-04-02T23:12:47;5.70;99.90
39779;DHT22;25454;49.878;8.618;2023-04-02T23:17:47;5.70;99.90
39779;DHT22;25454;49.878;8.618;2023-04-02T23:22:48;5.70;99.90
39779;DHT22;25454;49.878;8.618;2023-04-02T23:27:48;5.70;99.90
39779;DHT22;25454;49.878;8.618;2023-04-02T23:32:49;5.70;99.90
39779;DHT22;25454;49.878;8.618;2023-04-02T23:37:50;5.60;99.90
39779;DHT22;25454;49.878;8.618;2023-04-02T23:42:50;5.60;99.90
39779;DHT22;25454;49.878;8.618;2023-04-02T23:47:51;5.60;99.90
39779;DHT22;25454;49.878;8.618;2023-04-02T23:52:51;5.50;99.90
39779;DHT22;25454;49.878;8.618;2023-04-02T23:57:52;5.50;99.90
